Time;durP1;ratioP1;P1;durP2;ratioP2;P2;SDS_P1;SDS_P2;PMS_P1;PMS_P2;Temp;Humidity;BMP_temperature;BMP_pressure;BME280_temperature;BME280_humidity;BME280_pressure;Samples;Min_cycle;Max_cycle;Signal;HPM_P1;HPM_P2
2022/11/10 00:02:48;;;;;;;44.70;16.13;;;5.40;99.90;;;;;;5234345;28;20046;-76
2022/11/10 00:05:42;;;;;;;36.40;15.90;;;5.40;99.90;;;;;;5225299;28;20148;-76
2022/11/10 00:08:37;;;;;;;40.60;18.25;;;5.50;99.90;;;;;;5232921;28;20050;-77
2022/11/10 00:11:30;;;;;;;43.05;18.48;;;5.50;99.90;;;;;;5248569;28;20036;-76
2022/11/10 00:17:37;;;;;;;34.53;15.20;;;5.60;99.90;;;;;;5247956;28;20025;-76
2022/11/10 00:20:29;;;;;;;42.35;16.15;;;5.70;99.90;;;;;;5232523;28;20038;-76
2022/11/10 00:23:23;;;;;;;36.78;15.85;;;5.80;99.90;;;;;;5249837;28;20036;-76
2022/11/10 00:26:18;;;;;;;38.08;15.77;;;5.90;99.90;;;;;;5248017;28;20025;-76
2022/11/10 00:29:15;;;;;;;37.47;15.18;;;5.90;99.90;;;;;;5233479;28;20370;-76
2022/11/10 00:32:10;;;;;;;37.08;14.52;;;5.90;99.90;;;;;;5246082;28;20476;-75
2022/11/10 00:35:04;;;;;;;26.20;13.20;;;5.90;99.90;;;;;;5248026;28;20095;-75
2022/11/10 00:37:59;;;;;;;26.90;13.80;;;5.90;99.90;;;;;;5247157;28;20044;-76
2022/11/10 00:40:51;;;;;;;31.42;14.43;;;5.90;99.90;;;;;;5247641;28;20042;-76
2022/11/10 00:43:48;;;;;;;28.83;14.05;;;5.90;99.90;;;;;;5233710;28;20039;-75
2022/11/10 00:46:42;;;;;;;23.98;12.13;;;5.90;99.90;;;;;;5247498;28;20030;-76
2022/11/10 00:49:37;;;;;;;27.73;11.93;;;5.90;99.90;;;;;;5247214;28;20202;-76
2022/11/10 00:52:29;;;;;;;;;;;5.90;99.90;;;;;;5235043;28;20037;-75
2022/11/10 00:55:22;;;;;;;30.50;12.55;;;5.90;99.90;;;;;;5247123;28;19908;-74
2022/11/10 00:58:14;;;;;;;25.77;11.68;;;5.90;99.90;;;;;;5225095;28;20042;-75
2022/11/10 01:01:06;;;;;;;25.25;12.65;;;5.90;99.90;;;;;;5229825;28;20357;-75
2022/11/10 01:03:59;;;;;;;23.85;12.55;;;5.90;99.90;;;;;;5218786;28;20357;-75
2022/11/10 01:06:53;;;;;;;25.48;11.60;;;5.90;99.90;;;;;;5198067;28;20049;-74
2022/11/10 01:09:47;;;;;;;28.50;12.82;;;5.90;99.90;;;;;;5191567;28;20024;-76
2022/11/10 01:12:38;;;;;;;26.23;12.18;;;5.80;99.90;;;;;;5204793;28;20021;-76
2022/11/10 01:15:31;;;;;;;21.70;10.32;;;5.80;99.90;;;;;;5224789;28;20067;-75
2022/11/10 01:18:22;;;;;;;25.90;12.18;;;5.80;99.90;;;;;;5212238;28;20218;-76
2022/11/10 01:21:16;;;;;;;25.08;12.32;;;5.70;99.90;;;;;;5211040;28;20337;-76
2022/11/10 01:24:10;;;;;;;23.10;10.80;;;5.70;99.90;;;;;;5212237;28;20025;-76
2022/11/10 01:27:14;;;;;;;25.23;10.50;;;5.70;99.90;;;;;;5225604;28;20234;-75
2022/11/10 01:30:16;;;;;;;23.85;11.25;;;5.60;99.90;;;;;;5229485;28;20447;-75
2022/11/10 01:33:08;;;;;;;21.60;10.93;;;5.60;99.90;;;;;;5210626;28;20047;-76
2022/11/10 01:36:11;;;;;;;18.65;10.23;;;5.60;99.90;;;;;;5190579;28;20040;-76
2022/11/10 01:39:03;;;;;;;21.35;10.80;;;5.50;99.90;;;;;;5225652;28;20028;-76
2022/11/10 01:42:00;;;;;;;19.02;9.98;;;5.50;99.90;;;;;;5210366;28;20040;-76
2022/11/10 01:45:23;;;;;;;19.60;9.70;;;5.50;99.90;;;;;;5211121;28;20035;-76
2022/11/10 01:48:40;;;;;;;20.25;10.60;;;5.50;99.90;;;;;;5211493;28;20019;-76
2022/11/10 01:52:03;;;;;;;17.98;9.35;;;5.40;99.90;;;;;;5211877;28;20036;-75
2022/11/10 01:54:59;;;;;;;15.77;9.50;;;5.30;99.90;;;;;;5218670;28;20029;-74
2022/11/10 01:57:53;;;;;;;17.17;8.85;;;5.30;99.90;;;;;;5205468;28;20029;-75
2022/11/10 02:00:45;;;;;;;19.08;9.00;;;5.30;99.90;;;;;;5205074;28;20021;-76
2022/11/10 02:03:46;;;;;;;19.00;10.02;;;5.30;99.90;;;;;;5227707;28;20032;-76
2022/11/10 02:06:47;;;;;;;17.85;9.35;;;5.40;99.90;;;;;;5225744;28;20052;-76
2022/11/10 02:09:41;;;;;;;15.77;8.00;;;5.50;99.90;;;;;;5211280;28;20326;-76
2022/11/10 02:12:35;;;;;;;18.67;9.80;;;5.50;99.90;;;;;;5238693;28;20055;-76
2022/11/10 02:15:32;;;;;;;15.15;8.68;;;5.50;99.90;;;;;;5246252;28;20033;-76
2022/11/10 02:18:25;;;;;;;19.33;10.27;;;5.60;99.90;;;;;;5231822;28;20024;-76
2022/11/10 02:21:28;;;;;;;20.05;9.45;;;5.70;99.90;;;;;;5234933;28;20028;-76
2022/11/10 02:24:23;;;;;;;31.25;11.32;;;5.70;99.90;;;;;;5236505;28;20042;-76
2022/11/10 02:27:17;;;;;;;22.98;11.68;;;5.70;99.90;;;;;;5236333;28;20489;-75
2022/11/10 02:30:12;;;;;;;19.38;9.38;;;5.70;99.90;;;;;;5247465;28;20233;-75
2022/11/10 02:33:08;;;;;;;21.70;10.60;;;5.60;99.90;;;;;;5245503;28;20029;-75
2022/11/10 02:36:03;;;;;;;21.02;9.65;;;5.70;99.90;;;;;;5249021;28;20027;-76
2022/11/10 02:38:57;;;;;;;17.13;9.33;;;5.60;99.90;;;;;;5235885;28;20033;-76
2022/11/10 02:41:54;;;;;;;28.83;11.23;;;5.70;99.90;;;;;;5216709;28;20265;-76
2022/11/10 02:44:49;;;;;;;23.15;11.02;;;5.70;99.90;;;;;;5237159;28;20266;-75
2022/11/10 02:47:42;;;;;;;31.23;10.85;;;5.70;99.90;;;;;;5227225;28;20033;-76
2022/11/10 02:50:38;;;;;;;28.08;10.90;;;5.70;99.90;;;;;;5218899;28;20049;-76
2022/11/10 02:53:32;;;;;;;29.75;11.15;;;5.80;99.90;;;;;;5247553;28;20405;-75
2022/11/10 02:56:25;;;;;;;28.73;10.87;;;5.70;99.90;;;;;;5248523;28;20083;-76
2022/11/10 02:59:21;;;;;;;29.20;10.75;;;5.80;99.90;;;;;;5214321;28;20045;-75
2022/11/10 03:02:12;;;;;;;32.45;11.35;;;5.90;99.90;;;;;;5232243;28;20253;-76
2022/11/10 03:05:06;;;;;;;29.27;12.80;;;5.90;99.90;;;;;;5214443;28;20126;-75
2022/11/10 03:08:00;;;;;;;34.58;11.50;;;6.00;99.90;;;;;;5250285;28;20032;-75
2022/11/10 03:10:55;;;;;;;29.00;9.32;;;6.00;99.90;;;;;;5235234;28;20024;-76
2022/11/10 03:13:52;;;;;;;26.35;10.32;;;6.10;99.90;;;;;;5233789;28;20024;-76
2022/11/10 03:16:48;;;;;;;29.95;10.73;;;6.20;99.90;;;;;;5248190;28;20040;-76
2022/11/10 03:19:41;;;;;;;26.70;8.77;;;6.20;99.90;;;;;;5232659;28;20032;-76
2022/11/10 03:22:34;;;;;;;27.27;11.32;;;6.10;99.90;;;;;;5236440;28;20470;-76
2022/11/10 03:25:27;;;;;;;30.27;11.38;;;6.10;99.90;;;;;;5247316;28;20376;-76
2022/11/10 03:28:21;;;;;;;25.83;11.02;;;6.10;99.90;;;;;;5246491;28;20032;-76
2022/11/10 03:31:18;;;;;;;17.93;9.50;;;5.90;99.90;;;;;;5242226;28;20039;-76
2022/11/10 03:34:12;;;;;;;25.38;11.13;;;5.90;99.90;;;;;;5246658;28;20562;-76
2022/11/10 03:37:08;;;;;;;20.50;9.00;;;5.90;99.90;;;;;;5233928;28;20554;-76
2022/11/10 03:39:59;;;;;;;20.58;9.35;;;5.90;99.90;;;;;;5233095;28;20032;-75
2022/11/10 03:42:53;;;;;;;20.08;9.80;;;5.90;99.90;;;;;;5233509;28;20607;-75
2022/11/10 03:45:46;;;;;;;22.45;9.07;;;5.90;99.90;;;;;;5245919;28;20029;-76
2022/11/10 03:48:38;;;;;;;17.27;8.73;;;6.00;99.90;;;;;;5228076;28;20032;-76
2022/11/10 03:51:29;;;;;;;20.15;9.05;;;6.00;99.90;;;;;;5246721;28;20025;-76
2022/11/10 03:54:25;;;;;;;21.27;9.50;;;5.90;99.90;;;;;;5244951;28;20025;-75
2022/11/10 03:57:17;;;;;;;18.95;9.10;;;6.00;99.90;;;;;;5246933;28;20351;-75
2022/11/10 04:00:11;;;;;;;22.27;8.65;;;6.10;99.90;;;;;;5244970;28;20027;-76
2022/11/10 04:03:07;;;;;;;17.92;8.98;;;6.10;99.90;;;;;;5241083;28;20036;-76
2022/11/10 04:09:14;;;;;;;21.42;8.95;;;6.10;99.90;;;;;;5247666;28;20326;-76
2022/11/10 04:18:28;;;;;;;32.17;11.35;;;6.10;99.90;;;;;;5249496;28;20025;-76
2022/11/10 04:21:19;;;;;;;22.63;10.35;;;6.10;99.90;;;;;;5234869;28;20027;-76
2022/11/10 04:24:11;;;;;;;23.67;10.60;;;6.10;99.90;;;;;;5235237;28;20046;-75
2022/11/10 04:27:05;;;;;;;21.70;10.15;;;6.20;99.90;;;;;;5232359;28;20030;-76
2022/11/10 04:29:59;;;;;;;18.92;9.27;;;6.10;99.90;;;;;;5233295;28;20225;-75
2022/11/10 04:32:53;;;;;;;16.40;8.48;;;6.10;99.90;;;;;;5244248;28;20029;-75
2022/11/10 04:35:53;;;;;;;;;;;6.10;99.90;;;;;;5241726;28;20046;-75
2022/11/10 04:38:57;;;;;;;14.57;8.07;;;6.10;99.90;;;;;;5239998;28;19907;-76
2022/11/10 04:41:56;;;;;;;21.15;9.20;;;6.00;99.90;;;;;;5212419;28;20055;-75
2022/11/10 04:44:47;;;;;;;18.83;8.95;;;6.10;99.90;;;;;;5245446;28;20209;-75
2022/11/10 04:47:41;;;;;;;18.27;8.75;;;6.10;99.90;;;;;;5240977;28;20029;-74
2022/11/10 04:50:35;;;;;;;17.95;8.20;;;6.10;99.90;;;;;;5222238;28;20363;-75
2022/11/10 04:53:29;;;;;;;18.70;8.15;;;6.20;99.90;;;;;;5228751;28;20029;-76
2022/11/10 04:56:22;;;;;;;15.38;6.50;;;6.30;99.90;;;;;;5227061;28;20225;-77
2022/11/10 04:59:19;;;;;;;19.55;9.07;;;6.30;99.90;;;;;;5227778;28;20062;-76
2022/11/10 05:02:25;;;;;;;23.23;8.73;;;6.30;99.90;;;;;;5232932;28;20066;-75
2022/11/10 05:05:19;;;;;;;19.17;9.15;;;6.30;99.90;;;;;;5218292;28;20040;-77
2022/11/10 05:08:10;;;;;;;20.48;9.20;;;6.40;99.90;;;;;;5230512;28;20452;-74
2022/11/10 05:11:05;;;;;;;25.23;11.07;;;6.40;99.90;;;;;;5225992;28;20033;-74
2022/11/10 05:14:02;;;;;;;30.33;11.13;;;6.40;99.90;;;;;;5216673;28;20218;-75
2022/11/10 05:16:56;;;;;;;23.73;10.63;;;6.40;99.90;;;;;;5240194;28;20228;-74
2022/11/10 05:19:48;;;;;;;22.27;10.77;;;6.40;99.90;;;;;;5247104;28;20130;-76
2022/11/10 05:22:42;;;;;;;25.77;11.07;;;6.30;99.90;;;;;;5232510;28;20040;-76
2022/11/10 05:25:36;;;;;;;29.15;11.07;;;6.40;99.90;;;;;;5244330;28;20036;-75
2022/11/10 05:28:30;;;;;;;24.65;9.77;;;6.30;99.90;;;;;;5224889;28;20035;-74
2022/11/10 05:31:29;;;;;;;27.30;11.30;;;6.40;99.90;;;;;;5240269;28;20205;-76
2022/11/10 05:34:20;;;;;;;29.08;11.45;;;6.40;99.90;;;;;;5229490;28;20025;-76
2022/11/10 05:37:12;;;;;;;23.02;10.90;;;6.40;99.90;;;;;;5237703;28;20029;-75
2022/11/10 05:40:03;;;;;;;29.50;10.85;;;6.40;99.90;;;;;;5239409;28;20026;-75
2022/11/10 05:42:55;;;;;;;27.77;11.18;;;6.40;99.90;;;;;;5236364;28;20120;-77
2022/11/10 05:45:49;;;;;;;26.55;12.52;;;6.30;99.90;;;;;;5216660;28;20590;-76
2022/11/10 05:48:46;;;;;;;27.63;10.45;;;6.40;99.90;;;;;;5222016;28;20040;-75
2022/11/10 05:51:37;;;;;;;29.70;12.05;;;6.50;99.90;;;;;;5234891;28;20029;-75
2022/11/10 05:54:31;;;;;;;24.70;11.95;;;6.40;99.90;;;;;;5237926;28;20043;-75
2022/11/10 05:57:25;;;;;;;27.20;12.50;;;6.40;99.90;;;;;;5227303;28;20039;-76
2022/11/10 06:00:22;;;;;;;33.13;12.57;;;6.50;99.90;;;;;;5235253;28;20063;-76
2022/11/10 06:03:16;;;;;;;27.27;11.98;;;6.50;99.90;;;;;;5235841;28;20333;-77
2022/11/10 06:06:10;;;;;;;22.40;11.55;;;6.50;99.90;;;;;;5237460;28;20044;-76
2022/11/10 06:09:01;;;;;;;32.03;15.07;;;6.60;99.90;;;;;;5229472;28;20032;-77
2022/11/10 06:11:53;;;;;;;26.45;12.30;;;6.70;99.90;;;;;;5226792;28;20036;-77
2022/11/10 06:14:44;;;;;;;21.50;11.80;;;6.70;99.90;;;;;;5242682;28;20032;-76
2022/11/10 06:17:39;;;;;;;30.33;13.10;;;6.80;99.90;;;;;;5222867;28;20032;-77
2022/11/10 06:20:31;;;;;;;34.17;13.18;;;6.70;99.90;;;;;;5234681;28;20355;-75
2022/11/10 06:23:22;;;;;;;28.77;12.10;;;6.70;99.90;;;;;;5241831;28;20040;-77
2022/11/10 06:26:16;;;;;;;31.63;13.48;;;6.80;99.90;;;;;;5233213;28;20035;-74
2022/11/10 06:29:10;;;;;;;25.45;11.63;;;6.80;99.90;;;;;;5215243;28;20029;-75
2022/11/10 06:35:37;;;;;;;7.95;3.47;;;7.40;99.90;;;;;;5249863;28;20268;-77
2022/11/10 06:38:28;;;;;;;4.38;3.03;;;9.20;99.90;;;;;;5214307;28;20032;-76
2022/11/10 06:41:23;;;;;;;6.00;3.63;;;9.70;99.90;;;;;;5228574;28;20225;-76
2022/11/10 06:44:17;;;;;;;15.50;7.65;;;9.60;99.90;;;;;;5228200;28;20037;-77
2022/11/10 06:47:09;;;;;;;42.17;17.08;;;10.00;99.90;;;;;;5249297;28;20318;-76
2022/11/10 06:50:01;;;;;;;29.85;13.35;;;9.30;99.90;;;;;;5249551;28;20028;-77
2022/11/10 06:52:58;;;;;;;28.85;12.07;;;8.70;99.90;;;;;;5235198;28;20034;-76
2022/11/10 06:55:52;;;;;;;31.23;12.25;;;8.40;99.90;;;;;;5249145;28;20030;-76
2022/11/10 06:58:44;;;;;;;27.55;12.43;;;8.20;99.90;;;;;;5226236;28;20020;-76
2022/11/10 07:01:47;;;;;;;28.45;13.18;;;8.10;99.90;;;;;;5227947;28;20527;-76
2022/11/10 07:04:41;;;;;;;26.52;11.27;;;8.00;99.90;;;;;;5229577;28;20048;-76
2022/11/10 07:07:37;;;;;;;28.27;13.27;;;8.00;99.90;;;;;;5241152;28;20020;-75
2022/11/10 07:10:28;;;;;;;31.58;12.05;;;7.90;99.90;;;;;;5243070;28;20408;-76
2022/11/10 07:13:20;;;;;;;21.95;11.95;;;8.00;99.90;;;;;;5243805;28;20032;-76
2022/11/10 07:16:15;;;;;;;32.60;13.93;;;8.10;99.90;;;;;;5249596;28;20046;-76
2022/11/10 07:19:09;;;;;;;30.10;14.07;;;8.10;99.90;;;;;;5248191;28;20345;-76
2022/11/10 07:22:01;;;;;;;30.70;13.35;;;8.10;99.90;;;;;;5247951;28;20070;-76
2022/11/10 07:24:54;;;;;;;30.85;13.73;;;8.10;99.90;;;;;;5247007;28;20032;-76
2022/11/10 07:27:57;;;;;;;29.35;13.25;;;8.10;99.90;;;;;;5248086;28;20248;-76
2022/11/10 07:30:50;;;;;;;30.48;13.27;;;8.10;99.90;;;;;;5248145;28;20032;-76
2022/11/10 07:33:46;;;;;;;33.17;13.40;;;8.10;99.90;;;;;;5232832;28;20036;-76
2022/11/10 07:36:40;;;;;;;26.23;12.10;;;8.20;99.90;;;;;;5243848;28;20040;-76
2022/11/10 07:39:31;;;;;;;26.63;12.65;;;8.30;99.90;;;;;;5247763;28;20020;-76
2022/11/10 07:42:25;;;;;;;26.38;12.68;;;8.40;99.90;;;;;;5247701;28;20032;-76
2022/11/10 07:45:22;;;;;;;23.23;12.23;;;8.50;99.90;;;;;;5248192;28;20348;-76
2022/11/10 07:48:15;;;;;;;27.55;13.73;;;8.70;99.90;;;;;;5248256;28;20017;-75
2022/11/10 07:51:07;;;;;;;27.10;12.68;;;8.80;99.90;;;;;;5242734;28;20230;-75
2022/11/10 07:54:00;;;;;;;27.10;12.55;;;8.90;99.90;;;;;;5247490;28;20024;-75
2022/11/10 07:56:56;;;;;;;26.63;13.20;;;9.00;99.90;;;;;;5231661;28;20028;-76
2022/11/10 07:59:48;;;;;;;31.17;12.65;;;9.30;99.90;;;;;;5249105;28;20032;-75
2022/11/10 08:02:46;;;;;;;24.40;13.18;;;9.50;99.90;;;;;;5248205;28;20267;-74
2022/11/10 08:05:42;;;;;;;23.33;10.30;;;9.70;99.90;;;;;;5217772;28;20036;-76
2022/11/10 08:08:35;;;;;;;25.05;12.05;;;10.00;99.90;;;;;;5238228;28;20038;-76
2022/11/10 08:11:29;;;;;;;14.80;8.40;;;10.30;99.90;;;;;;5237088;28;20185;-75
2022/11/10 08:17:26;;;;;;;2.30;2.10;;;10.90;99.90;;;;;;5172745;27;3662500;-67
2022/11/10 08:20:18;;;;;;;2.25;2.05;;;11.50;99.90;;;;;;5255064;28;20235;-69
2022/11/10 08:23:10;;;;;;;3.50;2.00;;;11.90;99.90;;;;;;5269528;28;20023;-67
2022/11/10 08:26:04;;;;;;;2.35;2.15;;;12.00;99.90;;;;;;5255581;28;20028;-72
2022/11/10 08:28:57;;;;;;;2.05;1.85;;;12.20;99.90;;;;;;5265187;28;20032;-64
2022/11/10 08:31:52;;;;;;;2.03;1.83;;;12.20;99.90;;;;;;5256975;28;20080;-63
2022/11/10 08:34:43;;;;;;;2.20;2.00;;;12.10;99.90;;;;;;5286187;28;20050;-65
2022/11/10 08:37:37;;;;;;;2.95;2.70;;;12.20;99.90;;;;;;5272559;28;20261;-65
2022/11/10 08:40:28;;;;;;;2.20;2.00;;;12.30;99.90;;;;;;5268966;28;20028;-64
2022/11/10 08:43:20;;;;;;;2.40;2.20;;;12.30;99.90;;;;;;5271495;28;20023;-65
2022/11/10 08:46:11;;;;;;;2.30;2.10;;;12.30;99.90;;;;;;5286722;28;20030;-65
2022/11/10 08:49:04;;;;;;;5.13;3.05;;;12.40;99.90;;;;;;5298359;28;20019;-70
2022/11/10 08:52:03;;;;;;;2.63;2.42;;;12.50;99.90;;;;;;5270039;28;20046;-66
2022/11/10 08:54:55;;;;;;;3.28;2.05;;;12.60;99.90;;;;;;5266981;28;20020;-66
2022/11/10 08:57:47;;;;;;;2.30;2.10;;;12.50;99.90;;;;;;5265345;28;20028;-65
2022/11/10 09:00:43;;;;;;;2.50;2.25;;;12.50;99.90;;;;;;5266429;28;20030;-70
2022/11/10 09:03:37;;;;;;;2.40;1.90;;;12.50;99.90;;;;;;5242391;28;20029;-65
2022/11/10 09:06:28;;;;;;;2.00;1.80;;;12.70;99.90;;;;;;5174783;28;20072;-70
2022/11/10 09:09:20;;;;;;;2.20;2.00;;;12.70;99.90;;;;;;5203137;28;20381;-69
2022/11/10 09:12:13;;;;;;;7.53;5.97;;;12.80;99.90;;;;;;5188426;28;20031;-69
2022/11/10 09:15:12;;;;;;;2.70;2.50;;;12.80;99.90;;;;;;5177471;28;20030;-69
2022/11/10 09:18:05;;;;;;;2.67;2.08;;;12.90;99.90;;;;;;5180565;28;20207;-70
2022/11/10 09:21:00;;;;;;;5.85;1.70;;;12.80;99.90;;;;;;5168584;28;20279;-75
2022/11/10 09:23:53;;;;;;;2.22;1.92;;;12.80;99.90;;;;;;5182479;28;20021;-67
2022/11/10 09:26:47;;;;;;;1.60;1.48;;;12.70;99.90;;;;;;5159203;28;20044;-65
2022/11/10 09:29:38;;;;;;;2.53;2.00;;;12.70;99.90;;;;;;5164018;28;20036;-66
2022/11/10 09:32:31;;;;;;;1.45;1.35;;;12.70;99.90;;;;;;5148739;28;20030;-67
2022/11/10 09:35:25;;;;;;;2.30;2.10;;;12.80;99.90;;;;;;5136763;28;20319;-66
2022/11/10 09:38:17;;;;;;;2.38;2.03;;;12.80;99.90;;;;;;5169045;28;20347;-66
2022/11/10 09:41:15;;;;;;;3.28;2.17;;;12.80;99.90;;;;;;5165592;28;20044;-66
2022/11/10 09:44:25;;;;;;;3.85;2.25;;;12.80;99.90;;;;;;5166957;28;20034;-66
2022/11/10 09:47:30;;;;;;;2.92;2.30;;;12.90;99.90;;;;;;5141270;28;20022;-66
2022/11/10 09:50:35;;;;;;;20.42;10.80;;;12.90;99.90;;;;;;5159925;28;20022;-67
2022/11/10 09:53:35;;;;;;;31.27;14.90;;;12.90;99.90;;;;;;5158454;28;20038;-66
2022/11/10 09:56:38;;;;;;;18.25;10.57;;;12.90;99.90;;;;;;5154254;28;20032;-67
2022/11/10 09:59:32;;;;;;;11.07;7.65;;;13.00;99.90;;;;;;5168813;28;20038;-66
2022/11/10 10:02:38;;;;;;;4.15;3.03;;;13.10;99.90;;;;;;5165670;28;20026;-71
2022/11/10 10:05:35;;;;;;;5.15;2.42;;;13.20;99.90;;;;;;5151397;28;20050;-69
2022/11/10 10:08:55;;;;;;;2.30;2.10;;;13.20;99.90;;;;;;5139484;28;20034;-70
2022/11/10 10:11:50;;;;;;;3.00;2.70;;;13.30;99.90;;;;;;5189950;28;20044;-67
2022/11/10 10:15:00;;;;;;;15.85;9.60;;;13.30;99.90;;;;;;5150898;28;20030;-66
2022/11/10 10:18:20;;;;;;;2.97;2.67;;;13.40;99.90;;;;;;5121496;28;20042;-66
2022/11/10 10:21:34;;;;;;;2.85;2.30;;;13.40;99.90;;;;;;5126198;28;20214;-68
2022/11/10 10:24:31;;;;;;;2.90;2.70;;;13.20;99.90;;;;;;5139674;28;20037;-65
2022/11/10 10:27:25;;;;;;;2.65;2.28;;;13.10;99.90;;;;;;5147294;28;20268;-67
2022/11/10 10:30:19;;;;;;;2.42;1.95;;;13.00;99.90;;;;;;5133057;28;20198;-66
2022/11/10 10:33:22;;;;;;;2.78;2.20;;;13.00;99.90;;;;;;5139331;28;20275;-65
2022/11/10 10:36:25;;;;;;;2.75;2.17;;;13.00;99.90;;;;;;5137912;28;20054;-66
2022/11/10 10:39:29;;;;;;;2.40;1.85;;;12.90;99.90;;;;;;5137466;28;20030;-66
2022/11/10 10:42:25;;;;;;;3.30;2.17;;;12.90;99.90;;;;;;5134526;28;20039;-66
2022/11/10 10:45:19;;;;;;;2.47;2.03;;;12.90;99.90;;;;;;5138333;28;20042;-65
2022/11/10 10:48:31;;;;;;;2.53;2.20;;;12.80;99.90;;;;;;5124063;28;20041;-67
2022/11/10 10:51:29;;;;;;;2.03;1.88;;;12.80;99.90;;;;;;5116202;28;20039;-64
2022/11/10 10:54:29;;;;;;;2.22;2.00;;;12.80;99.90;;;;;;5118372;28;20039;-66
2022/11/10 10:57:30;;;;;;;3.03;2.03;;;12.80;99.90;;;;;;5144597;28;20038;-64
2022/11/10 11:00:24;;;;;;;2.42;2.22;;;12.80;99.90;;;;;;5143639;28;20058;-64
2022/11/10 11:03:25;;;;;;;2.65;2.30;;;12.80;99.90;;;;;;5149656;28;20038;-64
2022/11/10 11:06:18;;;;;;;2.58;1.80;;;12.80;99.90;;;;;;5129439;28;20053;-63
2022/11/10 11:09:24;;;;;;;2.35;1.55;;;12.80;99.90;;;;;;5148800;28;20030;-64
2022/11/10 11:12:22;;;;;;;2.53;1.92;;;12.70;99.90;;;;;;5148123;28;20365;-64
2022/11/10 11:15:28;;;;;;;3.05;2.17;;;12.80;99.90;;;;;;5153412;28;20032;-64
2022/11/10 11:18:22;;;;;;;3.22;1.95;;;12.80;99.90;;;;;;5183035;28;20065;-64
2022/11/10 11:21:23;;;;;;;3.05;2.20;;;12.80;99.90;;;;;;5173431;28;20464;-63
2022/11/10 11:24:42;;;;;;;3.38;2.30;;;12.80;99.90;;;;;;5171014;28;20036;-63
2022/11/10 11:27:48;;;;;;;2.05;1.80;;;12.80;99.90;;;;;;5185823;28;20040;-64
2022/11/10 11:30:48;;;;;;;1.98;1.80;;;12.90;99.90;;;;;;5158927;28;20022;-64
2022/11/10 11:34:13;;;;;;;2.80;1.73;;;13.00;99.90;;;;;;5183051;28;20025;-65
2022/11/10 11:37:27;;;;;;;2.08;1.80;;;12.90;99.90;;;;;;5162377;28;20025;-65
2022/11/10 11:40:39;;;;;;;2.08;1.88;;;12.90;99.90;;;;;;5185297;28;20239;-63
2022/11/10 11:43:39;;;;;;;3.83;2.50;;;12.90;99.90;;;;;;5185919;28;20219;-64
2022/11/10 11:46:53;;;;;;;3.90;1.90;;;12.90;99.90;;;;;;5170193;28;20121;-67
2022/11/10 11:49:57;;;;;;;2.33;1.80;;;12.90;99.90;;;;;;5165229;28;20034;-65
2022/11/10 11:52:53;;;;;;;2.97;2.25;;;13.00;99.90;;;;;;5170381;28;20030;-67
2022/11/10 11:56:03;;;;;;;2.10;1.60;;;13.00;99.90;;;;;;5154429;28;20034;-66
2022/11/10 11:59:10;;;;;;;2.30;1.70;;;13.00;99.90;;;;;;5185658;28;20318;-66
2022/11/10 12:02:13;;;;;;;2.47;2.28;;;13.00;99.90;;;;;;5183310;28;20040;-66
2022/11/10 12:05:22;;;;;;;2.55;2.20;;;13.00;99.90;;;;;;5166560;28;20228;-65
2022/11/10 12:08:48;;;;;;;3.65;2.30;;;13.00;99.90;;;;;;5159555;28;20026;-64
2022/11/10 12:11:42;;;;;;;5.43;2.45;;;13.00;99.90;;;;;;5170203;28;20356;-68
2022/11/10 12:14:50;;;;;;;2.37;2.17;;;13.00;99.90;;;;;;5170276;28;20344;-69
2022/11/10 12:18:00;;;;;;;4.43;2.40;;;13.00;99.90;;;;;;5171293;28;20046;-66
2022/11/10 12:21:00;;;;;;;3.03;2.40;;;13.00;99.90;;;;;;5185880;28;20022;-68
2022/11/10 12:24:13;;;;;;;3.83;2.50;;;13.00;99.90;;;;;;5171030;28;20037;-68
2022/11/10 12:27:19;;;;;;;4.30;2.67;;;13.00;99.90;;;;;;5185463;28;20025;-73
2022/11/10 12:30:19;;;;;;;3.08;2.78;;;13.00;99.90;;;;;;5190807;28;20029;-67
2022/11/10 12:33:25;;;;;;;3.20;2.70;;;13.00;99.90;;;;;;5206411;28;20025;-70
2022/11/10 12:36:23;;;;;;;2.97;2.67;;;13.00;99.90;;;;;;5188544;28;20044;-71
2022/11/10 12:39:23;;;;;;;2.75;2.22;;;13.00;99.90;;;;;;5169976;28;20266;-67
2022/11/10 12:42:23;;;;;;;5.15;2.53;;;13.00;99.90;;;;;;5187920;28;20048;-66
2022/11/10 12:45:26;;;;;;;3.00;2.63;;;13.00;99.90;;;;;;5179280;28;20047;-70
2022/11/10 12:48:20;;;;;;;9.90;6.53;;;13.00;99.90;;;;;;5165833;28;20031;-70
2022/11/10 12:51:46;;;;;;;2.95;2.67;;;13.10;99.90;;;;;;5202309;28;20017;-68
2022/11/10 12:54:41;;;;;;;3.10;2.80;;;12.90;99.90;;;;;;5126127;28;20087;-69
2022/11/10 12:57:33;;;;;;;3.80;3.00;;;12.90;99.90;;;;;;5124708;29;20338;-69
2022/11/10 13:00:36;;;;;;;3.10;2.42;;;12.90;99.90;;;;;;5159705;28;20025;-71
2022/11/10 13:03:37;;;;;;;3.50;2.85;;;12.90;99.90;;;;;;5181230;28;20037;-69
2022/11/10 13:06:35;;;;;;;3.13;2.47;;;12.90;99.90;;;;;;5161584;28;20098;-72
2022/11/10 13:09:33;;;;;;;3.38;2.83;;;12.80;99.90;;;;;;5172614;28;20350;-71
2022/11/10 13:12:27;;;;;;;4.38;3.00;;;12.80;99.90;;;;;;5175354;28;20026;-71
2022/11/10 13:15:34;;;;;;;4.10;3.50;;;12.70;99.90;;;;;;5186432;28;20250;-69
2022/11/10 13:18:31;;;;;;;4.28;3.20;;;12.60;99.90;;;;;;5169282;28;20056;-68
2022/11/10 13:21:51;;;;;;;5.45;3.38;;;12.60;99.90;;;;;;5180507;28;20034;-68
2022/11/10 13:24:43;;;;;;;4.85;3.72;;;12.50;99.90;;;;;;5208130;28;20451;-68
2022/11/10 13:27:40;;;;;;;4.43;2.88;;;12.50;99.90;;;;;;5185827;28;20052;-70
2022/11/10 13:30:45;;;;;;;4.97;3.83;;;12.60;99.90;;;;;;5181241;28;20344;-69
2022/11/10 13:33:40;;;;;;;5.32;3.92;;;12.60;99.90;;;;;;5177267;28;20036;-72
2022/11/10 13:36:49;;;;;;;4.95;3.72;;;12.60;99.90;;;;;;5175018;28;20330;-70
2022/11/10 13:39:41;;;;;;;3.70;3.13;;;12.80;99.90;;;;;;5175472;28;20032;-72
2022/11/10 13:42:35;;;;;;;4.35;3.50;;;13.20;99.90;;;;;;5189290;28;20246;-74
2022/11/10 13:45:37;;;;;;;7.40;4.10;;;13.40;99.90;;;;;;5170375;28;20020;-73
2022/11/10 13:48:39;;;;;;;4.57;3.05;;;13.60;99.90;;;;;;5159466;28;20026;-72
2022/11/10 13:51:39;;;;;;;5.45;2.90;;;13.80;99.90;;;;;;5168466;28;20025;-73
2022/11/10 13:54:54;;;;;;;5.63;3.42;;;14.00;99.90;;;;;;5199109;28;20016;-70
2022/11/10 13:58:08;;;;;;;5.13;3.45;;;14.00;99.90;;;;;;5199211;28;20036;-68
2022/11/10 14:01:22;;;;;;;9.85;6.30;;;13.90;99.90;;;;;;5174288;28;20268;-68
2022/11/10 14:04:45;;;;;;;18.10;11.25;;;13.70;99.90;;;;;;5145542;28;20030;-66
2022/11/10 14:07:46;;;;;;;4.22;2.97;;;13.80;99.90;;;;;;5169257;28;20046;-69
2022/11/10 14:10:45;;;;;;;5.65;3.22;;;13.70;99.90;;;;;;5171351;28;20041;-67
2022/11/10 14:13:59;;;;;;;5.10;3.17;;;13.60;99.90;;;;;;5181308;28;20250;-66
2022/11/10 14:16:53;;;;;;;4.22;2.88;;;13.80;99.90;;;;;;5202839;28;20041;-69
2022/11/10 14:19:47;;;;;;;4.93;3.20;;;13.60;99.90;;;;;;5194441;28;20203;-68
2022/11/10 14:22:42;;;;;;;5.05;3.90;;;13.50;99.90;;;;;;5189349;28;20032;-69
2022/11/10 14:25:40;;;;;;;5.22;3.13;;;13.50;99.90;;;;;;5187943;28;20056;-66
2022/11/10 14:28:40;;;;;;;6.10;2.90;;;13.40;99.90;;;;;;5206871;28;20029;-68
2022/11/10 14:31:35;;;;;;;5.15;3.05;;;13.30;99.90;;;;;;5181190;28;20196;-68
2022/11/10 14:34:31;;;;;;;3.88;2.60;;;13.00;99.90;;;;;;5173408;28;20332;-66
2022/11/10 14:37:28;;;;;;;3.95;2.67;;;12.80;99.90;;;;;;5188917;28;20048;-69
2022/11/10 14:40:20;;;;;;;4.18;2.92;;;12.60;99.90;;;;;;5175056;28;20030;-65
2022/11/10 14:43:33;;;;;;;4.40;2.78;;;12.40;99.90;;;;;;5188755;28;20026;-71
2022/11/10 14:46:27;;;;;;;6.00;2.83;;;12.30;99.90;;;;;;5174488;28;20352;-65
2022/11/10 14:49:23;;;;;;;3.58;2.83;;;12.30;99.90;;;;;;5188309;28;20315;-68
2022/11/10 14:52:21;;;;;;;3.35;2.63;;;12.30;99.90;;;;;;5187533;28;20070;-66
2022/11/10 14:55:17;;;;;;;5.78;2.95;;;12.20;99.90;;;;;;5172916;28;20314;-68
2022/11/10 14:58:31;;;;;;;4.22;2.92;;;12.10;99.90;;;;;;5168314;28;20042;-67
2022/11/10 15:01:32;;;;;;;4.18;2.78;;;12.10;99.90;;;;;;5182314;28;20035;-70
2022/11/10 15:04:32;;;;;;;4.85;3.10;;;12.00;99.90;;;;;;5154487;28;20058;-66
2022/11/10 15:07:29;;;;;;;3.65;2.83;;;11.90;99.90;;;;;;5137908;28;20043;-67
2022/11/10 15:10:26;;;;;;;6.03;2.67;;;11.90;99.90;;;;;;5150426;28;20031;-65
2022/11/10 15:13:27;;;;;;;3.17;2.88;;;11.80;99.90;;;;;;5156373;28;20022;-67
2022/11/10 15:16:28;;;;;;;3.13;2.35;;;11.70;99.90;;;;;;5154516;28;20030;-69
2022/11/10 15:19:28;;;;;;;3.95;2.50;;;11.60;99.90;;;;;;5119121;28;20037;-69
2022/11/10 15:22:35;;;;;;;5.22;2.67;;;11.60;99.90;;;;;;5132106;28;20129;-68
2022/11/10 15:25:36;;;;;;;5.05;3.03;;;11.60;99.90;;;;;;5147805;28;20031;-68
2022/11/10 15:28:34;;;;;;;5.18;2.78;;;11.60;99.90;;;;;;5131460;28;20022;-66
2022/11/10 15:31:29;;;;;;;5.47;2.85;;;11.50;99.90;;;;;;5148737;28;20331;-65
2022/11/10 15:34:40;;;;;;;4.32;2.25;;;11.60;99.90;;;;;;5132645;28;20035;-67
2022/11/10 15:37:35;;;;;;;6.78;2.80;;;11.80;99.90;;;;;;5144784;28;20045;-65
2022/11/10 15:40:29;;;;;;;5.28;2.70;;;11.80;99.90;;;;;;5115005;28;20027;-68